sensor_id;sensor_type;location;lat;lon;timestamp;P1;durP1;ratioP1;P2;durP2;ratioP2
15679;SDS011;15488;48.114;11.532;2023-08-06T00:01:12;3.87;;;3.40;;
15679;SDS011;15488;48.114;11.532;2023-08-06T00:03:40;3.57;;;3.27;;
15679;SDS011;15488;48.114;11.532;2023-08-06T00:06:07;3.77;;;3.37;;
15679;SDS011;15488;48.114;11.532;2023-08-06T00:08:35;3.20;;;2.90;;
15679;SDS011;15488;48.114;11.532;2023-08-06T00:11:02;3.40;;;2.90;;
15679;SDS011;15488;48.114;11.532;2023-08-06T00:13:29;4.80;;;3.37;;
15679;SDS011;15488;48.114;11.532;2023-08-06T00:16:08;4.80;;;2.93;;
15679;SDS011;15488;48.114;11.532;2023-08-06T00:18:36;3.27;;;2.73;;
15679;SDS011;15488;48.114;11.532;2023-08-06T00:21:04;3.40;;;3.10;;
15679;SDS011;15488;48.114;11.532;2023-08-06T00:23:32;3.80;;;3.00;;
15679;SDS011;15488;48.114;11.532;2023-08-06T00:25:59;3.67;;;2.87;;
15679;SDS011;15488;48.114;11.532;2023-08-06T00:28:26;3.10;;;2.77;;
15679;SDS011;15488;48.114;11.532;2023-08-06T00:30:54;3.10;;;2.80;;
15679;SDS011;15488;48.114;11.532;2023-08-06T00:33:23;2.80;;;2.50;;
15679;SDS011;15488;48.114;11.532;2023-08-06T00:35:51;4.20;;;2.57;;
15679;SDS011;15488;48.114;11.532;2023-08-06T00:38:19;3.00;;;2.70;;
15679;SDS011;15488;48.114;11.532;2023-08-06T00:40:46;2.40;;;2.20;;
15679;SDS011;15488;48.114;11.532;2023-08-06T00:43:13;4.63;;;2.53;;
15679;SDS011;15488;48.114;11.532;2023-08-06T00:45:41;2.57;;;2.37;;
15679;SDS011;15488;48.114;11.532;2023-08-06T00:48:09;2.83;;;2.60;;
15679;SDS011;15488;48.114;11.532;2023-08-06T00:50:38;2.70;;;2.50;;
15679;SDS011;15488;48.114;11.532;2023-08-06T00:53:06;2.73;;;2.43;;
15679;SDS011;15488;48.114;11.532;2023-08-06T00:55:33;2.37;;;2.10;;
15679;SDS011;15488;48.114;11.532;2023-08-06T00:58:01;2.80;;;2.50;;
15679;SDS011;15488;48.114;11.532;2023-08-06T01:00:29;2.57;;;2.37;;
15679;SDS011;15488;48.114;11.532;2023-08-06T01:02:57;3.27;;;2.50;;
15679;SDS011;15488;48.114;11.532;2023-08-06T01:05:24;3.20;;;2.40;;
15679;SDS011;15488;48.114;11.532;2023-08-06T01:07:59;3.63;;;2.43;;
15679;SDS011;15488;48.114;11.532;2023-08-06T01:10:39;4.30;;;3.00;;
15679;SDS011;15488;48.114;11.532;2023-08-06T01:13:16;2.90;;;2.70;;
15679;SDS011;15488;48.114;11.532;2023-08-06T01:15:50;4.47;;;3.10;;
15679;SDS011;15488;48.114;11.532;2023-08-06T01:18:23;3.57;;;3.20;;
15679;SDS011;15488;48.114;11.532;2023-08-06T01:20:51;4.17;;;3.17;;
15679;SDS011;15488;48.114;11.532;2023-08-06T01:23:19;3.67;;;3.37;;
15679;SDS011;15488;48.114;11.532;2023-08-06T01:25:48;4.10;;;3.20;;
15679;SDS011;15488;48.114;11.532;2023-08-06T01:28:22;3.73;;;3.40;;
15679;SDS011;15488;48.114;11.532;2023-08-06T01:30:56;3.83;;;3.47;;
15679;SDS011;15488;48.114;11.532;2023-08-06T01:33:28;4.57;;;3.07;;
15679;SDS011;15488;48.114;11.532;2023-08-06T01:35:58;4.43;;;3.33;;
15679;SDS011;15488;48.114;11.532;2023-08-06T01:38:27;3.73;;;3.00;;
15679;SDS011;15488;48.114;11.532;2023-08-06T01:40:54;3.63;;;2.93;;
15679;SDS011;15488;48.114;11.532;2023-08-06T01:43:22;3.33;;;3.03;;
15679;SDS011;15488;48.114;11.532;2023-08-06T01:45:49;3.17;;;2.83;;
15679;SDS011;15488;48.114;11.532;2023-08-06T01:48:17;4.80;;;3.00;;
15679;SDS011;15488;48.114;11.532;2023-08-06T01:50:44;3.80;;;3.03;;
15679;SDS011;15488;48.114;11.532;2023-08-06T01:53:13;3.23;;;2.93;;
15679;SDS011;15488;48.114;11.532;2023-08-06T01:55:40;3.53;;;3.00;;
15679;SDS011;15488;48.114;11.532;2023-08-06T01:58:08;2.97;;;2.60;;
15679;SDS011;15488;48.114;11.532;2023-08-06T02:00:35;3.10;;;2.80;;
15679;SDS011;15488;48.114;11.532;2023-08-06T02:03:03;3.10;;;2.80;;
15679;SDS011;15488;48.114;11.532;2023-08-06T02:05:30;4.63;;;2.53;;
15679;SDS011;15488;48.114;11.532;2023-08-06T02:07:57;3.00;;;2.70;;
15679;SDS011;15488;48.114;11.532;2023-08-06T02:10:26;4.73;;;2.73;;
15679;SDS011;15488;48.114;11.532;2023-08-06T02:12:54;3.20;;;2.60;;
15679;SDS011;15488;48.114;11.532;2023-08-06T02:15:21;2.57;;;2.37;;
15679;SDS011;15488;48.114;11.532;2023-08-06T02:17:49;3.77;;;2.50;;
15679;SDS011;15488;48.114;11.532;2023-08-06T02:20:16;3.03;;;2.37;;
15679;SDS011;15488;48.114;11.532;2023-08-06T02:22:44;2.63;;;2.30;;
15679;SDS011;15488;48.114;11.532;2023-08-06T02:25:11;3.87;;;2.20;;
15679;SDS011;15488;48.114;11.532;2023-08-06T02:27:40;2.40;;;2.10;;
15679;SDS011;15488;48.114;11.532;2023-08-06T02:30:07;2.30;;;2.10;;
15679;SDS011;15488;48.114;11.532;2023-08-06T02:32:35;2.43;;;2.17;;
15679;SDS011;15488;48.114;11.532;2023-08-06T02:35:03;1.80;;;1.70;;
15679;SDS011;15488;48.114;11.532;2023-08-06T02:37:32;2.57;;;2.20;;
15679;SDS011;15488;48.114;11.532;2023-08-06T02:40:00;2.50;;;2.00;;
15679;SDS011;15488;48.114;11.532;2023-08-06T02:42:28;2.53;;;2.30;;
15679;SDS011;15488;48.114;11.532;2023-08-06T02:44:57;2.70;;;1.80;;
15679;SDS011;15488;48.114;11.532;2023-08-06T02:47:24;3.80;;;2.20;;
15679;SDS011;15488;48.114;11.532;2023-08-06T02:49:52;2.40;;;2.20;;
15679;SDS011;15488;48.114;11.532;2023-08-06T02:52:19;2.27;;;2.03;;
15679;SDS011;15488;48.114;11.532;2023-08-06T02:54:47;2.93;;;2.20;;
15679;SDS011;15488;48.114;11.532;2023-08-06T02:57:14;2.00;;;1.80;;
15679;SDS011;15488;48.114;11.532;2023-08-06T02:59:41;3.97;;;2.10;;
15679;SDS011;15488;48.114;11.532;2023-08-06T03:02:10;2.37;;;2.03;;
15679;SDS011;15488;48.114;11.532;2023-08-06T03:04:38;2.17;;;1.97;;
15679;SDS011;15488;48.114;11.532;2023-08-06T03:07:05;2.10;;;1.90;;
15679;SDS011;15488;48.114;11.532;2023-08-06T03:09:33;2.47;;;2.07;;
15679;SDS011;15488;48.114;11.532;2023-08-06T03:12:00;1.90;;;1.80;;
15679;SDS011;15488;48.114;11.532;2023-08-06T03:14:27;2.20;;;2.00;;
15679;SDS011;15488;48.114;11.532;2023-08-06T03:16:55;2.53;;;1.90;;
15679;SDS011;15488;48.114;11.532;2023-08-06T03:19:24;2.00;;;1.60;;
15679;SDS011;15488;48.114;11.532;2023-08-06T03:21:51;4.60;;;1.80;;
15679;SDS011;15488;48.114;11.532;2023-08-06T03:24:19;3.23;;;2.00;;
15679;SDS011;15488;48.114;11.532;2023-08-06T03:26:47;3.00;;;1.90;;
15679;SDS011;15488;48.114;11.532;2023-08-06T03:29:14;1.83;;;1.70;;
15679;SDS011;15488;48.114;11.532;2023-08-06T03:31:41;2.30;;;1.90;;
15679;SDS011;15488;48.114;11.532;2023-08-06T03:34:09;1.93;;;1.77;;
15679;SDS011;15488;48.114;11.532;2023-08-06T03:36:38;2.07;;;1.83;;
15679;SDS011;15488;48.114;11.532;2023-08-06T03:39:06;2.30;;;2.00;;
15679;SDS011;15488;48.114;11.532;2023-08-06T03:41:33;2.00;;;1.80;;
15679;SDS011;15488;48.114;11.532;2023-08-06T03:43:59;2.10;;;1.73;;
15679;SDS011;15488;48.114;11.532;2023-08-06T03:46:28;1.90;;;1.60;;
15679;SDS011;15488;48.114;11.532;2023-08-06T03:48:57;1.90;;;1.70;;
15679;SDS011;15488;48.114;11.532;2023-08-06T03:51:24;2.07;;;1.60;;
15679;SDS011;15488;48.114;11.532;2023-08-06T03:53:53;2.10;;;1.90;;
15679;SDS011;15488;48.114;11.532;2023-08-06T03:56:21;1.90;;;1.70;;
15679;SDS011;15488;48.114;11.532;2023-08-06T03:58:48;1.90;;;1.60;;
15679;SDS011;15488;48.114;11.532;2023-08-06T04:01:16;1.97;;;1.77;;
15679;SDS011;15488;48.114;11.532;2023-08-06T04:03:43;1.73;;;1.60;;
15679;SDS011;15488;48.114;11.532;2023-08-06T04:06:10;1.80;;;1.57;;
15679;SDS011;15488;48.114;11.532;2023-08-06T04:08:38;2.57;;;1.90;;
15679;SDS011;15488;48.114;11.532;2023-08-06T04:11:07;1.90;;;1.70;;
15679;SDS011;15488;48.114;11.532;2023-08-06T04:13:34;2.17;;;1.70;;
15679;SDS011;15488;48.114;11.532;2023-08-06T04:16:01;1.57;;;1.47;;
15679;SDS011;15488;48.114;11.532;2023-08-06T04:18:29;1.73;;;1.63;;
15679;SDS011;15488;48.114;11.532;2023-08-06T04:20:56;1.70;;;1.60;;
15679;SDS011;15488;48.114;11.532;2023-08-06T04:23:24;1.83;;;1.50;;
15679;SDS011;15488;48.114;11.532;2023-08-06T04:25:51;2.00;;;1.80;;
15679;SDS011;15488;48.114;11.532;2023-08-06T04:28:23;3.63;;;1.63;;
15679;SDS011;15488;48.114;11.532;2023-08-06T04:30:51;2.53;;;1.60;;
15679;SDS011;15488;48.114;11.532;2023-08-06T04:33:18;2.23;;;1.60;;
15679;SDS011;15488;48.114;11.532;2023-08-06T04:35:46;2.30;;;1.70;;
15679;SDS011;15488;48.114;11.532;2023-08-06T04:38:14;1.90;;;1.77;;
15679;SDS011;15488;48.114;11.532;2023-08-06T04:40:41;2.00;;;1.60;;
15679;SDS011;15488;48.114;11.532;2023-08-06T04:43:09;1.70;;;1.60;;
15679;SDS011;15488;48.114;11.532;2023-08-06T04:45:38;1.60;;;1.40;;
15679;SDS011;15488;48.114;11.532;2023-08-06T04:48:11;1.97;;;1.60;;
15679;SDS011;15488;48.114;11.532;2023-08-06T04:50:42;1.83;;;1.67;;
15679;SDS011;15488;48.114;11.532;2023-08-06T04:53:10;1.60;;;1.40;;
15679;SDS011;15488;48.114;11.532;2023-08-06T04:55:37;1.77;;;1.50;;
15679;SDS011;15488;48.114;11.532;2023-08-06T04:58:05;2.17;;;1.43;;
15679;SDS011;15488;48.114;11.532;2023-08-06T05:00:33;1.93;;;1.50;;
15679;SDS011;15488;48.114;11.532;2023-08-06T05:03:02;1.63;;;1.50;;
15679;SDS011;15488;48.114;11.532;2023-08-06T05:05:30;2.23;;;1.70;;
15679;SDS011;15488;48.114;11.532;2023-08-06T05:07:57;1.67;;;1.50;;
15679;SDS011;15488;48.114;11.532;2023-08-06T05:10:24;2.67;;;1.60;;
15679;SDS011;15488;48.114;11.532;2023-08-06T05:12:52;1.90;;;1.57;;
15679;SDS011;15488;48.114;11.532;2023-08-06T05:15:20;1.40;;;1.30;;
15679;SDS011;15488;48.114;11.532;2023-08-06T05:17:47;2.30;;;1.50;;
15679;SDS011;15488;48.114;11.532;2023-08-06T05:20:16;3.13;;;1.77;;
15679;SDS011;15488;48.114;11.532;2023-08-06T05:22:44;2.43;;;1.40;;
15679;SDS011;15488;48.114;11.532;2023-08-06T05:25:12;1.90;;;1.60;;
15679;SDS011;15488;48.114;11.532;2023-08-06T05:27:40;1.87;;;1.50;;
15679;SDS011;15488;48.114;11.532;2023-08-06T05:30:08;1.77;;;1.60;;
15679;SDS011;15488;48.114;11.532;2023-08-06T05:32:36;1.50;;;1.40;;
15679;SDS011;15488;48.114;11.532;2023-08-06T05:35:04;1.40;;;1.30;;
15679;SDS011;15488;48.114;11.532;2023-08-06T05:37:33;2.47;;;1.70;;
15679;SDS011;15488;48.114;11.532;2023-08-06T05:40:01;1.60;;;1.50;;
15679;SDS011;15488;48.114;11.532;2023-08-06T05:42:29;1.67;;;1.40;;
15679;SDS011;15488;48.114;11.532;2023-08-06T05:44:57;1.83;;;1.53;;
15679;SDS011;15488;48.114;11.532;2023-08-06T05:47:24;1.93;;;1.40;;
15679;SDS011;15488;48.114;11.532;2023-08-06T05:49:52;2.13;;;1.60;;
15679;SDS011;15488;48.114;11.532;2023-08-06T05:52:19;2.40;;;1.53;;
15679;SDS011;15488;48.114;11.532;2023-08-06T05:54:48;3.57;;;1.30;;
15679;SDS011;15488;48.114;11.532;2023-08-06T05:57:15;1.70;;;1.57;;
15679;SDS011;15488;48.114;11.532;2023-08-06T05:59:43;1.43;;;1.33;;
15679;SDS011;15488;48.114;11.532;2023-08-06T06:02:10;1.37;;;1.27;;
15679;SDS011;15488;48.114;11.532;2023-08-06T06:04:38;1.40;;;1.10;;
15679;SDS011;15488;48.114;11.532;2023-08-06T06:07:07;1.37;;;1.27;;
15679;SDS011;15488;48.114;11.532;2023-08-06T06:09:34;1.97;;;1.40;;
15679;SDS011;15488;48.114;11.532;2023-08-06T06:12:03;1.73;;;1.30;;
15679;SDS011;15488;48.114;11.532;2023-08-06T06:14:31;2.27;;;1.20;;
15679;SDS011;15488;48.114;11.532;2023-08-06T06:16:59;2.03;;;1.30;;
15679;SDS011;15488;48.114;11.532;2023-08-06T06:19:26;1.60;;;1.40;;
15679;SDS011;15488;48.114;11.532;2023-08-06T06:21:54;1.87;;;1.30;;
15679;SDS011;15488;48.114;11.532;2023-08-06T06:24:22;1.60;;;1.37;;
15679;SDS011;15488;48.114;11.532;2023-08-06T06:26:50;1.40;;;1.00;;
15679;SDS011;15488;48.114;11.532;2023-08-06T06:29:19;1.40;;;1.30;;
15679;SDS011;15488;48.114;11.532;2023-08-06T06:31:46;1.40;;;1.20;;
15679;SDS011;15488;48.114;11.532;2023-08-06T06:34:13;1.20;;;1.03;;
15679;SDS011;15488;48.114;11.532;2023-08-06T06:36:41;1.40;;;1.20;;
15679;SDS011;15488;48.114;11.532;2023-08-06T06:39:08;1.40;;;1.20;;
15679;SDS011;15488;48.114;11.532;2023-08-06T06:41:36;1.33;;;1.10;;
15679;SDS011;15488;48.114;11.532;2023-08-06T06:44:03;1.70;;;1.40;;
15679;SDS011;15488;48.114;11.532;2023-08-06T06:46:33;1.27;;;1.13;;
15679;SDS011;15488;48.114;11.532;2023-08-06T06:49:00;1.40;;;1.17;;
15679;SDS011;15488;48.114;11.532;2023-08-06T06:51:28;1.30;;;1.20;;
15679;SDS011;15488;48.114;11.532;2023-08-06T06:53:57;1.47;;;1.20;;
15679;SDS011;15488;48.114;11.532;2023-08-06T06:56:24;1.53;;;1.13;;
15679;SDS011;15488;48.114;11.532;2023-08-06T06:58:51;1.93;;;1.30;;
15679;SDS011;15488;48.114;11.532;2023-08-06T07:01:19;1.53;;;1.00;;
15679;SDS011;15488;48.114;11.532;2023-08-06T07:03:48;1.30;;;1.03;;
15679;SDS011;15488;48.114;11.532;2023-08-06T07:06:15;2.17;;;0.90;;
15679;SDS011;15488;48.114;11.532;2023-08-06T07:08:43;0.90;;;0.80;;
15679;SDS011;15488;48.114;11.532;2023-08-06T07:11:11;1.53;;;1.17;;
15679;SDS011;15488;48.114;11.532;2023-08-06T07:13:38;1.13;;;0.80;;
15679;SDS011;15488;48.114;11.532;2023-08-06T07:16:06;0.70;;;0.70;;
15679;SDS011;15488;48.114;11.532;2023-08-06T07:18:33;0.77;;;0.70;;
15679;SDS011;15488;48.114;11.532;2023-08-06T07:21:02;1.00;;;0.70;;
15679;SDS011;15488;48.114;11.532;2023-08-06T07:23:29;1.17;;;0.80;;
15679;SDS011;15488;48.114;11.532;2023-08-06T07:25:57;0.63;;;0.50;;
15679;SDS011;15488;48.114;11.532;2023-08-06T07:28:24;1.47;;;0.83;;
15679;SDS011;15488;48.114;11.532;2023-08-06T07:30:52;1.23;;;0.50;;
15679;SDS011;15488;48.114;11.532;2023-08-06T07:33:19;0.90;;;0.70;;
15679;SDS011;15488;48.114;11.532;2023-08-06T07:35:47;1.53;;;0.60;;
15679;SDS011;15488;48.114;11.532;2023-08-06T07:38:15;1.30;;;0.60;;
15679;SDS011;15488;48.114;11.532;2023-08-06T07:40:43;1.97;;;0.60;;
15679;SDS011;15488;48.114;11.532;2023-08-06T07:43:11;1.00;;;0.70;;
15679;SDS011;15488;48.114;11.532;2023-08-06T07:45:38;3.00;;;0.90;;
15679;SDS011;15488;48.114;11.532;2023-08-06T07:48:06;1.47;;;0.67;;
15679;SDS011;15488;48.114;11.532;2023-08-06T07:50:33;1.00;;;0.60;;
15679;SDS011;15488;48.114;11.532;2023-08-06T07:53:00;0.70;;;0.50;;
15679;SDS011;15488;48.114;11.532;2023-08-06T07:55:30;0.80;;;0.60;;
15679;SDS011;15488;48.114;11.532;2023-08-06T07:57:57;0.80;;;0.60;;
15679;SDS011;15488;48.114;11.532;2023-08-06T08:00:25;1.43;;;0.60;;
15679;SDS011;15488;48.114;11.532;2023-08-06T08:02:52;1.10;;;0.63;;
15679;SDS011;15488;48.114;11.532;2023-08-06T08:05:19;0.90;;;0.80;;
15679;SDS011;15488;48.114;11.532;2023-08-06T08:07:47;0.97;;;0.63;;
15679;SDS011;15488;48.114;11.532;2023-08-06T08:10:14;0.57;;;0.43;;
15679;SDS011;15488;48.114;11.532;2023-08-06T08:12:43;1.10;;;0.50;;
15679;SDS011;15488;48.114;11.532;2023-08-06T08:15:12;1.20;;;0.67;;
15679;SDS011;15488;48.114;11.532;2023-08-06T08:17:40;1.00;;;0.50;;
15679;SDS011;15488;48.114;11.532;2023-08-06T08:20:07;1.00;;;0.60;;
15679;SDS011;15488;48.114;11.532;2023-08-06T08:22:35;1.00;;;0.60;;
15679;SDS011;15488;48.114;11.532;2023-08-06T08:25:03;1.27;;;0.50;;
15679;SDS011;15488;48.114;11.532;2023-08-06T08:27:31;0.70;;;0.70;;
15679;SDS011;15488;48.114;11.532;2023-08-06T08:30:00;1.20;;;0.50;;
15679;SDS011;15488;48.114;11.532;2023-08-06T08:32:27;1.23;;;0.90;;
15679;SDS011;15488;48.114;11.532;2023-08-06T08:34:54;0.67;;;0.40;;
15679;SDS011;15488;48.114;11.532;2023-08-06T08:37:22;1.20;;;0.50;;
15679;SDS011;15488;48.114;11.532;2023-08-06T08:39:50;2.57;;;0.27;;
15679;SDS011;15488;48.114;11.532;2023-08-06T08:42:18;0.73;;;0.30;;
15679;SDS011;15488;48.114;11.532;2023-08-06T08:44:46;1.73;;;0.30;;
15679;SDS011;15488;48.114;11.532;2023-08-06T08:47:15;0.37;;;0.30;;
15679;SDS011;15488;48.114;11.532;2023-08-06T08:49:42;0.67;;;0.30;;
15679;SDS011;15488;48.114;11.532;2023-08-06T08:52:10;0.30;;;0.23;;
15679;SDS011;15488;48.114;11.532;2023-08-06T08:54:40;0.50;;;0.30;;
15679;SDS011;15488;48.114;11.532;2023-08-06T08:57:09;1.17;;;0.20;;
15679;SDS011;15488;48.114;11.532;2023-08-06T08:59:37;0.30;;;0.20;;
15679;SDS011;15488;48.114;11.532;2023-08-06T09:02:04;0.43;;;0.20;;
15679;SDS011;15488;48.114;11.532;2023-08-06T09:04:36;0.40;;;0.30;;
15679;SDS011;15488;48.114;11.532;2023-08-06T09:07:03;0.70;;;0.53;;
15679;SDS011;15488;48.114;11.532;2023-08-06T09:09:33;1.30;;;0.30;;
15679;SDS011;15488;48.114;11.532;2023-08-06T09:12:05;0.97;;;0.40;;
15679;SDS011;15488;48.114;11.532;2023-08-06T09:14:37;0.30;;;0.20;;
15679;SDS011;15488;48.114;11.532;2023-08-06T09:17:04;0.20;;;0.20;;
15679;SDS011;15488;48.114;11.532;2023-08-06T09:19:32;0.27;;;0.20;;
15679;SDS011;15488;48.114;11.532;2023-08-06T09:22:01;0.13;;;0.10;;
15679;SDS011;15488;48.114;11.532;2023-08-06T09:24:37;0.20;;;0.10;;
15679;SDS011;15488;48.114;11.532;2023-08-06T09:27:06;0.30;;;0.10;;
15679;SDS011;15488;48.114;11.532;2023-08-06T09:29:40;0.73;;;0.30;;
15679;SDS011;15488;48.114;11.532;2023-08-06T09:32:09;0.30;;;0.20;;
15679;SDS011;15488;48.114;11.532;2023-08-06T09:34:38;0.33;;;0.20;;
15679;SDS011;15488;48.114;11.532;2023-08-06T09:37:08;0.30;;;0.20;;
15679;SDS011;15488;48.114;11.532;2023-08-06T09:39:39;0.10;;;0.10;;
15679;SDS011;15488;48.114;11.532;2023-08-06T09:42:06;0.13;;;0.10;;
15679;SDS011;15488;48.114;11.532;2023-08-06T09:44:34;0.50;;;0.10;;
15679;SDS011;15488;48.114;11.532;2023-08-06T09:47:04;0.10;;;0.10;;
15679;SDS011;15488;48.114;11.532;2023-08-06T09:49:40;0.27;;;0.10;;
15679;SDS011;15488;48.114;11.532;2023-08-06T09:52:11;1.53;;;0.10;;
15679;SDS011;15488;48.114;11.532;2023-08-06T09:54:41;0.10;;;0.10;;
15679;SDS011;15488;48.114;11.532;2023-08-06T09:57:11;1.27;;;0.17;;
15679;SDS011;15488;48.114;11.532;2023-08-06T09:59:40;0.37;;;0.37;;
15679;SDS011;15488;48.114;11.532;2023-08-06T10:02:10;0.10;;;0.10;;
15679;SDS011;15488;48.114;11.532;2023-08-06T10:04:40;0.77;;;0.33;;
15679;SDS011;15488;48.114;11.532;2023-08-06T10:07:12;0.53;;;0.10;;
15679;SDS011;15488;48.114;11.532;2023-08-06T10:09:39;0.37;;;0.10;;
15679;SDS011;15488;48.114;11.532;2023-08-06T10:12:07;0.33;;;0.10;;
15679;SDS011;15488;48.114;11.532;2023-08-06T10:14:37;0.20;;;0.10;;
15679;SDS011;15488;48.114;11.532;2023-08-06T10:17:06;0.47;;;0.10;;
15679;SDS011;15488;48.114;11.532;2023-08-06T10:19:35;0.20;;;0.10;;
15679;SDS011;15488;48.114;11.532;2023-08-06T10:22:08;0.43;;;0.10;;
15679;SDS011;15488;48.114;11.532;2023-08-06T10:24:45;0.83;;;0.30;;
15679;SDS011;15488;48.114;11.532;2023-08-06T10:27:19;0.43;;;0.10;;
15679;SDS011;15488;48.114;11.532;2023-08-06T10:29:48;0.00;;;0.00;;
15679;SDS011;15488;48.114;11.532;2023-08-06T10:32:16;0.83;;;0.20;;
15679;SDS011;15488;48.114;11.532;2023-08-06T10:34:57;0.03;;;0.03;;
15679;SDS011;15488;48.114;11.532;2023-08-06T10:37:34;2.00;;;0.40;;
15679;SDS011;15488;48.114;11.532;2023-08-06T10:40:02;0.10;;;0.00;;
15679;SDS011;15488;48.114;11.532;2023-08-06T10:42:32;0.30;;;0.10;;
15679;SDS011;15488;48.114;11.532;2023-08-06T10:45:12;0.57;;;0.10;;
15679;SDS011;15488;48.114;11.532;2023-08-06T10:47:41;0.10;;;0.10;;
15679;SDS011;15488;48.114;11.532;2023-08-06T10:50:10;0.10;;;0.10;;
15679;SDS011;15488;48.114;11.532;2023-08-06T10:52:42;0.10;;;0.10;;
15679;SDS011;15488;48.114;11.532;2023-08-06T10:55:10;0.93;;;0.00;;
15679;SDS011;15488;48.114;11.532;2023-08-06T10:57:38;1.60;;;0.20;;
15679;SDS011;15488;48.114;11.532;2023-08-06T11:00:06;0.20;;;0.20;;
15679;SDS011;15488;48.114;11.532;2023-08-06T11:02:36;1.53;;;0.47;;
15679;SDS011;15488;48.114;11.532;2023-08-06T11:05:04;0.27;;;0.20;;
15679;SDS011;15488;48.114;11.532;2023-08-06T11:07:32;0.10;;;0.10;;
15679;SDS011;15488;48.114;11.532;2023-08-06T11:10:02;0.10;;;0.00;;
15679;SDS011;15488;48.114;11.532;2023-08-06T11:12:31;8.13;;;1.17;;
15679;SDS011;15488;48.114;11.532;2023-08-06T11:14:59;0.03;;;0.03;;
15679;SDS011;15488;48.114;11.532;2023-08-06T11:17:27;0.10;;;0.03;;
15679;SDS011;15488;48.114;11.532;2023-08-06T11:19:58;0.30;;;0.10;;
15679;SDS011;15488;48.114;11.532;2023-08-06T11:22:26;0.20;;;0.10;;
15679;SDS011;15488;48.114;11.532;2023-08-06T11:24:54;0.40;;;0.10;;
15679;SDS011;15488;48.114;11.532;2023-08-06T11:27:25;0.20;;;0.10;;
15679;SDS011;15488;48.114;11.532;2023-08-06T11:29:54;0.73;;;0.50;;
15679;SDS011;15488;48.114;11.532;2023-08-06T11:32:21;0.20;;;0.10;;
15679;SDS011;15488;48.114;11.532;2023-08-06T11:34:49;0.53;;;0.10;;
15679;SDS011;15488;48.114;11.532;2023-08-06T11:37:20;0.10;;;0.10;;
15679;SDS011;15488;48.114;11.532;2023-08-06T11:39:49;0.10;;;0.10;;
15679;SDS011;15488;48.114;11.532;2023-08-06T11:42:17;0.00;;;0.00;;
15679;SDS011;15488;48.114;11.532;2023-08-06T11:44:46;0.00;;;0.00;;
15679;SDS011;15488;48.114;11.532;2023-08-06T11:47:14;0.10;;;0.10;;
15679;SDS011;15488;48.114;11.532;2023-08-06T11:49:43;0.10;;;0.10;;
15679;SDS011;15488;48.114;11.532;2023-08-06T11:52:13;0.00;;;0.00;;
15679;SDS011;15488;48.114;11.532;2023-08-06T11:54:44;0.00;;;0.00;;
15679;SDS011;15488;48.114;11.532;2023-08-06T11:57:12;0.17;;;0.10;;
15679;SDS011;15488;48.114;11.532;2023-08-06T11:59:41;0.10;;;0.00;;
15679;SDS011;15488;48.114;11.532;2023-08-06T12:02:10;0.10;;;0.10;;
15679;SDS011;15488;48.114;11.532;2023-08-06T12:07:39;0.43;;;0.10;;
15679;SDS011;15488;48.114;11.532;2023-08-06T12:10:07;0.23;;;0.10;;
15679;SDS011;15488;48.114;11.532;2023-08-06T12:12:35;1.87;;;0.57;;
15679;SDS011;15488;48.114;11.532;2023-08-06T12:15:04;0.10;;;0.10;;
15679;SDS011;15488;48.114;11.532;2023-08-06T12:17:34;0.93;;;0.20;;
15679;SDS011;15488;48.114;11.532;2023-08-06T12:20:02;0.10;;;0.10;;
15679;SDS011;15488;48.114;11.532;2023-08-06T12:22:32;0.20;;;0.20;;
15679;SDS011;15488;48.114;11.532;2023-08-06T12:25:01;0.40;;;0.10;;
15679;SDS011;15488;48.114;11.532;2023-08-06T12:27:31;0.33;;;0.10;;
15679;SDS011;15488;48.114;11.532;2023-08-06T12:29:59;1.17;;;0.10;;
15679;SDS011;15488;48.114;11.532;2023-08-06T12:32:28;0.40;;;0.10;;
15679;SDS011;15488;48.114;11.532;2023-08-06T12:34:57;1.10;;;1.00;;
15679;SDS011;15488;48.114;11.532;2023-08-06T12:37:25;0.30;;;0.20;;
15679;SDS011;15488;48.114;11.532;2023-08-06T12:39:53;0.10;;;0.10;;
15679;SDS011;15488;48.114;11.532;2023-08-06T12:42:20;0.63;;;0.10;;
15679;SDS011;15488;48.114;11.532;2023-08-06T12:44:49;0.10;;;0.10;;
15679;SDS011;15488;48.114;11.532;2023-08-06T12:47:17;0.10;;;0.10;;
15679;SDS011;15488;48.114;11.532;2023-08-06T12:49:44;0.40;;;0.10;;
15679;SDS011;15488;48.114;11.532;2023-08-06T12:52:13;0.10;;;0.10;;
15679;SDS011;15488;48.114;11.532;2023-08-06T12:54:41;0.10;;;0.10;;
15679;SDS011;15488;48.114;11.532;2023-08-06T12:57:11;0.20;;;0.10;;
15679;SDS011;15488;48.114;11.532;2023-08-06T12:59:38;0.20;;;0.20;;
15679;SDS011;15488;48.114;11.532;2023-08-06T13:02:06;0.10;;;0.10;;
15679;SDS011;15488;48.114;11.532;2023-08-06T13:04:34;0.00;;;0.00;;
15679;SDS011;15488;48.114;11.532;2023-08-06T13:07:01;0.10;;;0.10;;
15679;SDS011;15488;48.114;11.532;2023-08-06T13:09:32;0.40;;;0.10;;
15679;SDS011;15488;48.114;11.532;2023-08-06T13:12:00;0.20;;;0.20;;
15679;SDS011;15488;48.114;11.532;2023-08-06T13:14:30;0.30;;;0.10;;
15679;SDS011;15488;48.114;11.532;2023-08-06T13:16:58;0.83;;;0.17;;
15679;SDS011;15488;48.114;11.532;2023-08-06T13:19:25;0.10;;;0.10;;
15679;SDS011;15488;48.114;11.532;2023-08-06T13:22:00;0.20;;;0.20;;
15679;SDS011;15488;48.114;11.532;2023-08-06T13:24:30;1.20;;;0.10;;
15679;SDS011;15488;48.114;11.532;2023-08-06T13:26:59;0.27;;;0.10;;
15679;SDS011;15488;48.114;11.532;2023-08-06T13:29:28;0.10;;;0.10;;
15679;SDS011;15488;48.114;11.532;2023-08-06T13:31:55;0.47;;;0.10;;
15679;SDS011;15488;48.114;11.532;2023-08-06T13:34:23;0.43;;;0.30;;
15679;SDS011;15488;48.114;11.532;2023-08-06T13:36:50;0.10;;;0.10;;
15679;SDS011;15488;48.114;11.532;2023-08-06T13:39:17;0.47;;;0.10;;
15679;SDS011;15488;48.114;11.532;2023-08-06T13:41:46;0.10;;;0.10;;
15679;SDS011;15488;48.114;11.532;2023-08-06T13:44:14;0.20;;;0.20;;
15679;SDS011;15488;48.114;11.532;2023-08-06T13:46:42;0.17;;;0.17;;
15679;SDS011;15488;48.114;11.532;2023-08-06T13:49:09;0.83;;;0.10;;
15679;SDS011;15488;48.114;11.532;2023-08-06T13:51:36;0.20;;;0.10;;
15679;SDS011;15488;48.114;11.532;2023-08-06T13:54:04;0.17;;;0.17;;
15679;SDS011;15488;48.114;11.532;2023-08-06T13:56:32;0.20;;;0.13;;
15679;SDS011;15488;48.114;11.532;2023-08-06T13:59:03;0.20;;;0.10;;
15679;SDS011;15488;48.114;11.532;2023-08-06T14:01:31;0.20;;;0.17;;
15679;SDS011;15488;48.114;11.532;2023-08-06T14:03:59;0.17;;;0.17;;
15679;SDS011;15488;48.114;11.532;2023-08-06T14:06:26;0.20;;;0.20;;
15679;SDS011;15488;48.114;11.532;2023-08-06T14:08:53;0.10;;;0.10;;
15679;SDS011;15488;48.114;11.532;2023-08-06T14:11:21;1.00;;;0.37;;
15679;SDS011;15488;48.114;11.532;2023-08-06T14:13:48;0.30;;;0.20;;
15679;SDS011;15488;48.114;11.532;2023-08-06T14:16:17;0.37;;;0.30;;
15679;SDS011;15488;48.114;11.532;2023-08-06T14:18:45;0.63;;;0.30;;
15679;SDS011;15488;48.114;11.532;2023-08-06T14:21:12;1.57;;;0.20;;
15679;SDS011;15488;48.114;11.532;2023-08-06T14:23:40;0.40;;;0.30;;
15679;SDS011;15488;48.114;11.532;2023-08-06T14:26:07;0.30;;;0.20;;
15679;SDS011;15488;48.114;11.532;2023-08-06T14:28:36;0.50;;;0.30;;
15679;SDS011;15488;48.114;11.532;2023-08-06T14:31:03;0.27;;;0.20;;
15679;SDS011;15488;48.114;11.532;2023-08-06T14:33:33;0.73;;;0.20;;
15679;SDS011;15488;48.114;11.532;2023-08-06T14:36:00;0.60;;;0.20;;
15679;SDS011;15488;48.114;11.532;2023-08-06T14:38:28;0.60;;;0.20;;
15679;SDS011;15488;48.114;11.532;2023-08-06T14:40:55;0.23;;;0.20;;
15679;SDS011;15488;48.114;11.532;2023-08-06T14:43:23;0.20;;;0.20;;